createdAt,value
2017-12-10T00:00:55.798Z,1
2017-12-10T00:01:54.408Z,1.1
2017-12-10T00:02:53.845Z,1
2017-12-10T00:03:52.671Z,1
2017-12-10T00:04:51.393Z,1
2017-12-10T00:05:50.722Z,1
2017-12-10T00:06:49.337Z,1
2017-12-10T00:07:48.578Z,1
2017-12-10T00:08:47.404Z,1
2017-12-10T00:09:46.013Z,1
2017-12-10T00:10:45.276Z,1
2017-12-10T00:11:44.222Z,1
2017-12-10T00:12:43.446Z,1
2017-12-10T00:13:42.372Z,1
2017-12-10T00:14:40.982Z,1
2017-12-10T00:15:40.316Z,1
2017-12-10T00:16:39.030Z,1.1
2017-12-10T00:17:38.347Z,1
2017-12-10T00:18:36.952Z,1
2017-12-10T00:19:36.171Z,1.1
2017-12-10T00:20:34.882Z,1.1
2017-12-10T00:21:34.104Z,1.1
2017-12-10T00:22:04.752Z,1.1
2017-12-10T00:22:35.291Z,1.1
2017-12-10T00:23:31.987Z,1.1
2017-12-10T00:24:30.594Z,1.1
2017-12-10T00:25:29.708Z,1.1
2017-12-10T00:26:28.605Z,1.1
2017-12-10T00:27:27.927Z,1.1
2017-12-10T00:28:26.847Z,1.1
2017-12-10T00:29:25.662Z,1
2017-12-10T00:30:24.884Z,1
2017-12-10T00:31:23.807Z,1
2017-12-10T00:31:54.051Z,1
2017-12-10T00:32:24.291Z,1
2017-12-10T00:32:54.479Z,1
2017-12-10T00:33:25.006Z,1
2017-12-10T00:33:55.755Z,1
2017-12-10T00:34:26.396Z,1
2017-12-10T00:34:56.521Z,1
2017-12-10T00:36:18.281Z,0.9
2017-12-10T00:37:17.598Z,0.9
2017-12-10T00:38:16.421Z,0.9
2017-12-10T00:39:15.639Z,0.9
2017-12-10T00:40:14.354Z,0.9
2017-12-10T00:41:13.172Z,0.8
2017-12-10T00:41:43.602Z,0.8
2017-12-10T00:42:13.924Z,0.9
2017-12-10T00:42:44.664Z,0.9
2017-12-10T00:44:10.456Z,0.8
2017-12-10T00:45:09.284Z,0.8
2017-12-10T00:46:08.504Z,0.8
2017-12-10T00:47:07.219Z,0.8
2017-12-10T00:49:05.105Z,0.8
2017-12-10T00:50:04.013Z,0.7
2017-12-10T00:51:03.238Z,0.7
2017-12-10T00:52:01.954Z,0.7
2017-12-10T00:53:01.393Z,0.7
2017-12-10T00:54:00.214Z,0.7
2017-12-10T00:54:58.993Z,0.7
2017-12-10T00:55:58.114Z,0.7
2017-12-10T00:56:56.834Z,0.7
2017-12-10T00:57:55.952Z,0.7
2017-12-10T00:58:54.877Z,0.7
2017-12-10T00:59:53.382Z,0.7
2017-12-10T01:00:52.701Z,0.7
2017-12-10T01:01:52.027Z,0.7
2017-12-10T01:02:50.744Z,0.7
2017-12-10T01:03:49.459Z,0.6
2017-12-10T01:04:48.575Z,0.7
2017-12-10T01:05:47.917Z,0.6
2017-12-10T01:06:46.310Z,0.7
2017-12-10T01:07:45.526Z,0.7
2017-12-10T01:08:44.343Z,0.6
2017-12-10T01:09:43.714Z,0.6
2017-12-10T01:10:42.425Z,0.6
2017-12-10T01:11:41.429Z,0.6
2017-12-10T01:12:40.745Z,0.6
2017-12-10T01:13:10.881Z,0.6
2017-12-10T01:13:41.303Z,0.6
2017-12-10T01:14:11.830Z,0.6
2017-12-10T01:14:42.612Z,0.7
2017-12-10T01:15:12.534Z,0.7
2017-12-10T01:16:36.522Z,0.6
2017-12-10T01:17:35.365Z,0.7
2017-12-10T01:18:34.249Z,0.7
2017-12-10T01:19:32.742Z,0.7
2017-12-10T01:20:32.070Z,0.7
2017-12-10T01:21:31.280Z,0.7
2017-12-10T01:22:30.118Z,0.6
2017-12-10T01:23:28.736Z,0.6
2017-12-10T01:23:59.059Z,0.6
2017-12-10T01:24:29.482Z,0.6
2017-12-10T01:24:59.808Z,0.6
2017-12-10T01:25:30.447Z,0.6
2017-12-10T01:26:26.036Z,0.6
2017-12-10T01:27:24.963Z,0.6
2017-12-10T01:28:23.907Z,0.6
2017-12-10T01:29:22.738Z,0.6
2017-12-10T01:30:21.858Z,0.6
2017-12-10T01:31:20.697Z,0.6
2017-12-10T01:32:19.527Z,0.6
2017-12-10T01:33:18.965Z,0.6
2017-12-10T01:35:16.776Z,0.6
2017-12-10T01:36:15.284Z,0.6
2017-12-10T01:37:14.398Z,0.6
2017-12-10T01:38:13.508Z,0.6
2017-12-10T01:39:12.339Z,0.5
2017-12-10T01:40:11.456Z,0.5
2017-12-10T01:41:10.678Z,0.6
2017-12-10T01:42:09.279Z,0.6
2017-12-10T01:43:08.709Z,0.5
2017-12-10T01:44:07.417Z,0.6
2017-12-10T01:45:06.136Z,0.5
2017-12-10T01:46:05.462Z,0.5
2017-12-10T01:47:04.078Z,0.5
2017-12-10T01:48:03.200Z,0.5
2017-12-10T01:49:01.929Z,0.4
2017-12-10T01:49:32.352Z,0.4
2017-12-10T01:50:02.679Z,0.5
2017-12-10T01:50:59.999Z,0.4
2017-12-10T01:51:58.830Z,0.4
2017-12-10T01:52:58.254Z,0.4
2017-12-10T01:53:57.071Z,0.4
2017-12-10T01:55:54.771Z,0.4
2017-12-10T01:56:54.097Z,0.4
2017-12-10T01:57:52.924Z,0.4
2017-12-10T01:58:51.751Z,0.3
2017-12-10T02:00:49.955Z,0.3
2017-12-10T02:01:48.462Z,0.3
2017-12-10T02:02:47.788Z,0.3
2017-12-10T02:03:46.610Z,0.2
2017-12-10T02:04:45.440Z,0.2
2017-12-10T02:06:43.543Z,0.2
2017-12-10T02:07:42.477Z,0.2
2017-12-10T02:08:41.130Z,0.2
2017-12-10T02:10:39.449Z,0.2
2017-12-10T02:11:38.182Z,0.2
2017-12-10T02:12:37.287Z,0.2
2017-12-10T02:13:35.999Z,0.1
2017-12-10T02:14:35.318Z,0.2
2017-12-10T02:15:34.044Z,0.1
2017-12-10T02:16:32.943Z,0.1
2017-12-10T02:17:32.152Z,0.1
2017-12-10T02:18:30.649Z,0.1
2017-12-10T02:19:29.873Z,0.1
2017-12-10T02:20:28.745Z,0.1
2017-12-10T02:21:27.956Z,0.1
2017-12-10T02:22:26.564Z,0.1
2017-12-10T02:23:25.788Z,0.1
2017-12-10T02:24:24.609Z,0.1
2017-12-10T02:25:23.950Z,0.1
2017-12-10T02:26:22.619Z,0.1
2017-12-10T02:27:21.450Z,0.1
2017-12-10T02:28:20.451Z,0.1
2017-12-10T02:29:19.671Z,0.1
2017-12-10T02:30:18.509Z,0.1
2017-12-10T02:32:16.319Z,0.1
2017-12-10T02:33:15.659Z,0.1
2017-12-10T02:34:14.381Z,0.1
2017-12-10T02:35:13.100Z,0
2017-12-10T02:36:12.430Z,0.1
2017-12-10T02:37:11.268Z,0
2017-12-10T02:38:09.895Z,0
2017-12-10T02:39:09.004Z,0
2017-12-10T02:40:08.235Z,0.1
2017-12-10T02:41:06.847Z,0
2017-12-10T02:42:06.084Z,0
2017-12-10T02:43:05.015Z,0
2017-12-10T02:44:03.852Z,0
2017-12-10T02:45:02.799Z,0
2017-12-10T02:46:01.628Z,0
2017-12-10T02:47:00.862Z,0
2017-12-10T02:47:59.585Z,0
2017-12-10T02:48:30.007Z,0
2017-12-10T02:49:00.641Z,0
2017-12-10T02:49:30.957Z,0
2017-12-10T02:50:01.493Z,0
2017-12-10T02:50:56.572Z,0
2017-12-10T02:51:55.392Z,0
2017-12-10T02:53:53.502Z,0
2017-12-10T02:54:52.433Z,0
2017-12-10T02:55:51.658Z,0
2017-12-10T02:56:50.374Z,0
2017-12-10T02:57:49.311Z,0
2017-12-10T02:58:47.817Z,0
2017-12-10T02:59:47.042Z,0
2017-12-10T03:00:46.380Z,0
2017-12-10T03:02:43.872Z,0
2017-12-10T03:03:43.094Z,0
2017-12-10T03:04:41.916Z,0
2017-12-10T03:05:40.735Z,0
2017-12-10T03:06:39.849Z,0
2017-12-10T03:07:38.624Z,0
2017-12-10T03:08:37.735Z,0
2017-12-10T03:09:36.452Z,0
2017-12-10T03:10:35.673Z,0
2017-12-10T03:11:34.495Z,0
2017-12-10T03:12:33.820Z,0
2017-12-10T03:13:32.647Z,0
2017-12-10T03:14:31.258Z,0
2017-12-10T03:15:30.260Z,0
2017-12-10T03:16:29.470Z,0
2017-12-10T03:17:28.188Z,0
2017-12-10T03:18:27.513Z,0
2017-12-10T03:19:26.117Z,0
2017-12-10T03:20:25.342Z,0
2017-12-10T03:21:23.952Z,0
2017-12-10T03:22:23.282Z,0
2017-12-10T03:23:22.103Z,0
2017-12-10T03:24:20.713Z,0
2017-12-10T03:25:20.140Z,0
2017-12-10T03:26:19.072Z,0
2017-12-10T03:27:17.904Z,0
2017-12-10T03:28:16.734Z,0
2017-12-10T03:29:16.008Z,0
2017-12-10T03:30:14.966Z,0
2017-12-10T03:31:13.920Z,0
2017-12-10T03:32:12.858Z,0
2017-12-10T03:33:11.587Z,0
2017-12-10T03:34:10.420Z,0
2017-12-10T03:35:09.863Z,0
2017-12-10T03:36:08.582Z,0
2017-12-10T03:37:07.298Z,0
2017-12-10T03:38:06.400Z,0
2017-12-10T03:39:05.225Z,0
2017-12-10T03:40:04.436Z,0
2017-12-10T03:41:03.259Z,0
2017-12-10T03:42:02.089Z,0
2017-12-10T03:43:01.217Z,0
2017-12-10T03:44:00.039Z,0
2017-12-10T03:44:59.159Z,0.1
2017-12-10T03:45:57.874Z,0.1
2017-12-10T03:46:57.306Z,0.1
2017-12-10T03:47:56.230Z,0.1
2017-12-10T03:48:55.044Z,0.1
2017-12-10T03:49:53.873Z,0.1
2017-12-10T03:50:52.692Z,0
2017-12-10T03:51:51.793Z,0
2017-12-10T03:52:50.492Z,0
2017-12-10T03:53:49.599Z,0
2017-12-10T03:54:48.706Z,0
2017-12-10T03:55:47.514Z,0
2017-12-10T03:56:46.612Z,0
2017-12-10T03:57:45.311Z,0
2017-12-10T03:58:44.302Z,0
2017-12-10T03:59:43.715Z,0
2017-12-10T04:00:42.634Z,0
2017-12-10T04:01:41.549Z,0
2017-12-10T04:02:39.820Z,0
2017-12-10T04:03:38.932Z,0
2017-12-10T04:04:38.130Z,0
2017-12-10T04:05:37.446Z,0
2017-12-10T04:06:07.249Z,0
2017-12-10T04:06:37.774Z,0
2017-12-10T04:07:34.964Z,0
2017-12-10T04:09:32.946Z,0
2017-12-10T04:10:32.262Z,0
2017-12-10T04:11:31.174Z,0
2017-12-10T04:12:29.989Z,0
2017-12-10T04:13:28.811Z,0
2017-12-10T04:14:27.802Z,0
2017-12-10T04:15:26.411Z,0.1
2017-12-10T04:15:57.144Z,0.1
2017-12-10T04:16:27.377Z,0
2017-12-10T04:16:57.490Z,0
2017-12-10T04:17:28.007Z,0
2017-12-10T04:18:23.908Z,0.1
2017-12-10T04:19:22.607Z,0
2017-12-10T04:20:21.309Z,0
2017-12-10T04:21:20.690Z,0
2017-12-10T04:22:19.389Z,0
2017-12-10T04:23:18.094Z,0
2017-12-10T04:24:17.196Z,0
2017-12-10T04:25:16.460Z,0
2017-12-10T04:26:15.161Z,0
2017-12-10T04:27:14.373Z,0
2017-12-10T04:28:13.181Z,0.1
2017-12-10T04:29:11.781Z,0.1
2017-12-10T04:30:11.034Z,0.1
2017-12-10T04:31:10.241Z,0.1
2017-12-10T04:32:09.051Z,0
2017-12-10T04:33:07.859Z,0
2017-12-10T04:34:06.677Z,0
2017-12-10T04:35:05.992Z,0
2017-12-10T04:36:04.796Z,0
2017-12-10T04:37:03.501Z,0
2017-12-10T04:38:02.703Z,0
2017-12-10T04:39:01.623Z,0
2017-12-10T04:40:00.322Z,0
2017-12-10T04:40:59.535Z,0
2017-12-10T04:41:58.747Z,0
2017-12-10T04:42:57.453Z,0
2017-12-10T04:43:56.547Z,0
2017-12-10T04:44:55.139Z,0
2017-12-10T04:45:25.557Z,0
2017-12-10T04:45:56.074Z,0
2017-12-10T04:46:26.602Z,0
2017-12-10T04:46:57.126Z,0
2017-12-10T04:47:27.651Z,0
2017-12-10T04:48:51.009Z,0
2017-12-10T04:49:50.426Z,0
2017-12-10T04:50:49.027Z,0
2017-12-10T04:51:48.196Z,0
2017-12-10T04:52:46.688Z,0
2017-12-10T04:53:45.778Z,0
2017-12-10T04:54:44.980Z,0
2017-12-10T04:55:43.684Z,0
2017-12-10T04:56:14.194Z,0
2017-12-10T04:56:44.817Z,0
2017-12-10T04:57:15.237Z,0
2017-12-10T04:57:45.872Z,0
2017-12-10T04:58:16.003Z,0
2017-12-10T04:59:39.821Z,0
2017-12-10T05:00:38.521Z,0
2017-12-10T05:01:37.632Z,0
2017-12-10T05:02:36.437Z,0
2017-12-10T05:03:35.434Z,0
2017-12-10T05:04:34.634Z,0
2017-12-10T05:05:33.446Z,0
2017-12-10T05:06:31.930Z,0
2017-12-10T05:07:31.238Z,0
2017-12-10T05:08:30.053Z,0
2017-12-10T05:09:29.044Z,0
2017-12-10T05:10:28.352Z,0
2017-12-10T05:11:27.056Z,0
2017-12-10T05:12:26.161Z,0
2017-12-10T05:13:24.860Z,0
2017-12-10T05:14:24.068Z,0
2017-12-10T05:15:22.674Z,0
2017-12-10T05:16:22.093Z,0
2017-12-10T05:17:20.692Z,0
2017-12-10T05:18:19.684Z,0
2017-12-10T05:19:19.002Z,0
2017-12-10T05:20:17.722Z,0
2017-12-10T05:21:16.429Z,0
2017-12-10T05:22:15.735Z,0
2017-12-10T05:23:14.457Z,0
2017-12-10T05:24:13.764Z,0
2017-12-10T05:25:12.361Z,0
2017-12-10T05:25:42.670Z,0
2017-12-10T05:26:13.186Z,0
2017-12-10T05:28:09.262Z,0
2017-12-10T05:28:39.783Z,0
2017-12-10T05:30:07.187Z,-0.1
2017-12-10T05:31:05.902Z,-0.1
2017-12-10T05:32:05.221Z,-0.1
2017-12-10T05:33:04.148Z,-0.1
2017-12-10T05:34:02.951Z,-0.1
2017-12-10T05:35:01.947Z,-0.1
2017-12-10T05:36:01.052Z,-0.1
2017-12-10T05:36:31.688Z,-0.1
2017-12-10T05:37:02.426Z,-0.1
2017-12-10T05:37:33.071Z,-0.1
2017-12-10T05:38:58.153Z,-0.1
2017-12-10T05:39:57.067Z,-0.1
2017-12-10T05:40:55.768Z,-0.1
2017-12-10T05:41:54.695Z,-0.2
2017-12-10T05:42:53.275Z,-0.2
2017-12-10T05:43:52.371Z,-0.2
2017-12-10T05:44:51.684Z,-0.2
2017-12-10T05:45:50.599Z,-0.2
2017-12-10T05:46:49.413Z,-0.2
2017-12-10T05:47:48.332Z,-0.2
2017-12-10T05:48:47.148Z,-0.2
2017-12-10T05:49:46.577Z,-0.2
2017-12-10T05:50:45.381Z,-0.2
2017-12-10T05:51:44.091Z,-0.2
2017-12-10T05:52:43.297Z,-0.2
2017-12-10T05:53:41.998Z,-0.2
2017-12-10T05:54:41.210Z,-0.2
2017-12-10T05:55:39.704Z,-0.2
2017-12-10T05:56:38.806Z,-0.2
2017-12-10T05:57:38.116Z,-0.2
2017-12-10T05:58:36.933Z,-0.3
2017-12-10T05:59:35.639Z,-0.3
2017-12-10T06:00:34.847Z,-0.3
2017-12-10T06:01:33.345Z,-0.3
2017-12-10T06:02:32.667Z,-0.3
2017-12-10T06:03:31.479Z,-0.3
2017-12-10T06:04:30.692Z,-0.3
2017-12-10T06:05:29.599Z,-0.3
2017-12-10T06:06:28.302Z,-0.3
2017-12-10T06:07:27.621Z,-0.4
2017-12-10T06:08:26.429Z,-0.4
2017-12-10T06:09:25.064Z,-0.4
2017-12-10T06:10:24.052Z,-0.4
2017-12-10T06:11:23.361Z,-0.4
2017-12-10T06:12:21.961Z,-0.4
2017-12-10T06:13:21.388Z,-0.4
2017-12-10T06:14:19.986Z,-0.5
2017-12-10T06:15:18.899Z,-0.4
2017-12-10T06:16:18.008Z,-0.4
2017-12-10T06:16:48.745Z,-0.4
2017-12-10T06:18:15.753Z,-0.4
2017-12-10T06:19:15.063Z,-0.4
2017-12-10T06:20:13.781Z,-0.4
2017-12-10T06:21:12.591Z,-0.4
2017-12-10T06:22:11.913Z,-0.4
2017-12-10T06:23:10.620Z,-0.4
2017-12-10T06:24:09.327Z,-0.4
2017-12-10T06:25:08.644Z,-0.4
2017-12-10T06:26:07.467Z,-0.4
2017-12-10T06:27:06.066Z,-0.5
2017-12-10T06:28:05.437Z,-0.5
2017-12-10T06:29:04.139Z,-0.5
2017-12-10T06:30:03.130Z,-0.5
2017-12-10T06:31:01.934Z,-0.5
2017-12-10T06:32:01.142Z,-0.5
2017-12-10T06:32:59.844Z,-0.5
2017-12-10T06:33:59.270Z,-0.5
2017-12-10T06:34:57.978Z,-0.5
2017-12-10T06:35:56.896Z,-0.5
2017-12-10T06:36:55.491Z,-0.4
2017-12-10T06:37:54.697Z,-0.4
2017-12-10T06:38:54.010Z,-0.4
2017-12-10T06:39:52.607Z,-0.4
2017-12-10T06:40:51.975Z,-0.4
2017-12-10T06:41:50.787Z,-0.4
2017-12-10T06:42:49.602Z,-0.3
2017-12-10T06:43:48.410Z,-0.3
2017-12-10T06:44:47.122Z,-0.3
2017-12-10T06:45:46.332Z,-0.3
2017-12-10T06:46:45.031Z,-0.3
2017-12-10T06:47:44.342Z,-0.3
2017-12-10T06:48:42.944Z,-0.3
2017-12-10T06:49:42.250Z,-0.3
2017-12-10T06:50:41.162Z,-0.3
2017-12-10T06:51:39.663Z,-0.3
2017-12-10T06:52:38.984Z,-0.3
2017-12-10T06:53:37.874Z,-0.3
2017-12-10T06:54:37.304Z,-0.3
2017-12-10T06:55:35.905Z,-0.3
2017-12-10T06:56:34.710Z,-0.2
2017-12-10T06:57:33.592Z,-0.2
2017-12-10T06:58:32.801Z,-0.2
2017-12-10T06:59:31.621Z,-0.2
2017-12-10T07:00:30.424Z,-0.2
2017-12-10T07:01:29.839Z,-0.2
2017-12-10T07:02:28.538Z,-0.2
2017-12-10T07:03:27.240Z,-0.2
2017-12-10T07:04:26.446Z,-0.2
2017-12-10T07:05:25.252Z,-0.2
2017-12-10T07:06:24.058Z,-0.2
2017-12-10T07:08:22.518Z,-0.1
2017-12-10T07:09:21.110Z,-0.1
2017-12-10T07:10:20.315Z,-0.1
2017-12-10T07:10:50.941Z,-0.1
2017-12-10T07:11:21.569Z,-0.1
2017-12-10T07:11:51.718Z,-0.1
2017-12-10T07:12:22.235Z,-0.1
2017-12-10T07:12:52.865Z,-0.1
2017-12-10T07:14:15.621Z,-0.1
2017-12-10T07:15:14.831Z,-0.1
2017-12-10T07:16:13.934Z,-0.1
2017-12-10T07:17:12.863Z,-0.1
2017-12-10T07:18:11.676Z,-0.1
2017-12-10T07:19:11.003Z,-0.1
2017-12-10T07:20:09.870Z,-0.1
2017-12-10T07:21:08.571Z,-0.1
2017-12-10T07:22:07.274Z,-0.1
2017-12-10T07:23:06.374Z,-0.1
2017-12-10T07:24:05.467Z,-0.1
2017-12-10T07:25:04.168Z,-0.1
2017-12-10T07:26:03.381Z,-0.1
2017-12-10T07:27:01.978Z,0
2017-12-10T07:28:01.082Z,-0.1
2017-12-10T07:28:59.796Z,-0.1
2017-12-10T07:30:57.673Z,-0.1
2017-12-10T07:31:56.995Z,0
2017-12-10T07:32:55.696Z,-0.1
2017-12-10T07:33:54.914Z,-0.1
2017-12-10T07:34:53.616Z,0
2017-12-10T07:35:24.135Z,0
2017-12-10T07:35:54.548Z,0
2017-12-10T07:36:51.749Z,0
2017-12-10T07:37:50.453Z,-0.1
2017-12-10T07:38:49.661Z,0
2017-12-10T07:39:48.366Z,0
2017-12-10T07:40:47.780Z,-0.1
2017-12-10T07:41:46.376Z,0
2017-12-10T07:42:45.827Z,0
2017-12-10T07:43:44.526Z,0
2017-12-10T07:44:43.332Z,0
2017-12-10T07:46:40.925Z,0
2017-12-10T07:47:40.244Z,0
2017-12-10T07:48:38.958Z,0
2017-12-10T07:49:38.060Z,0
2017-12-10T07:50:36.959Z,0
2017-12-10T07:51:07.582Z,0
2017-12-10T07:51:37.995Z,0
2017-12-10T07:52:08.625Z,0
2017-12-10T07:52:39.252Z,0
2017-12-10T07:53:09.773Z,0
2017-12-10T07:54:32.639Z,0
2017-12-10T07:56:30.830Z,0
2017-12-10T07:57:29.536Z,0
2017-12-10T07:58:28.855Z,0
2017-12-10T07:59:27.557Z,0
2017-12-10T08:00:26.358Z,0
2017-12-10T08:01:25.680Z,0
2017-12-10T08:02:24.401Z,0
2017-12-10T08:03:23.278Z,0
2017-12-10T08:04:22.374Z,0
2017-12-10T08:05:21.577Z,0
2017-12-10T08:06:20.390Z,0
2017-12-10T08:07:18.878Z,0
2017-12-10T08:08:17.988Z,0
2017-12-10T08:09:17.300Z,0
2017-12-10T08:10:16.114Z,0
2017-12-10T08:11:14.827Z,0
2017-12-10T08:12:14.036Z,0
2017-12-10T08:13:12.853Z,0
2017-12-10T08:14:11.447Z,0
2017-12-10T08:15:10.876Z,0
2017-12-10T08:16:09.576Z,0
2017-12-10T08:17:08.889Z,0.1
2017-12-10T08:18:07.592Z,0
2017-12-10T08:19:06.788Z,0
2017-12-10T08:20:05.390Z,0
2017-12-10T08:21:04.489Z,0.1
2017-12-10T08:22:03.486Z,0.1
2017-12-10T08:23:02.293Z,0.1
2017-12-10T08:24:01.499Z,0.1
2017-12-10T08:25:00.215Z,0.1
2017-12-10T08:25:59.531Z,0.1
2017-12-10T08:26:58.352Z,0.1
2017-12-10T08:28:56.034Z,0.1
2017-12-10T08:29:55.355Z,0.1
2017-12-10T08:30:54.169Z,0.1
2017-12-10T08:31:53.210Z,0.1
2017-12-10T08:32:52.021Z,0.2
2017-12-10T08:33:22.652Z,0.2
2017-12-10T08:33:53.393Z,0.2
2017-12-10T08:34:23.518Z,0.2
2017-12-10T08:34:54.038Z,0.2
2017-12-10T08:35:48.708Z,0.2
2017-12-10T08:36:47.911Z,0.2
2017-12-10T08:37:46.614Z,0.2
2017-12-10T08:39:44.605Z,0.2
2017-12-10T08:40:44.030Z,0.2
2017-12-10T08:41:42.840Z,0.2
2017-12-10T08:42:41.547Z,0.3
2017-12-10T08:43:40.757Z,0.2
2017-12-10T08:44:39.455Z,0.2
2017-12-10T08:45:38.285Z,0.2
2017-12-10T08:46:37.269Z,0.2
2017-12-10T08:47:36.469Z,0.2
2017-12-10T08:48:35.297Z,0.2
2017-12-10T08:49:34.114Z,0.3
2017-12-10T08:50:33.542Z,0.3
2017-12-10T08:51:32.355Z,0.3
2017-12-10T08:52:31.286Z,0.3
2017-12-10T08:53:30.205Z,0.3
2017-12-10T08:54:28.804Z,0.3
2017-12-10T08:55:28.120Z,0.3
2017-12-10T08:56:26.527Z,0.3
2017-12-10T08:57:25.626Z,0.3
2017-12-10T08:58:24.943Z,0.3
2017-12-10T08:59:23.758Z,0.3
2017-12-10T09:00:23.067Z,0.3
2017-12-10T09:01:21.768Z,0.3
2017-12-10T09:02:20.576Z,0.3
2017-12-10T09:03:19.686Z,0.3
2017-12-10T09:04:18.501Z,0.3
2017-12-10T09:05:17.716Z,0.3
2017-12-10T09:06:16.529Z,0.4
2017-12-10T09:07:15.336Z,0.4
2017-12-10T09:07:45.909Z,0.4
2017-12-10T09:08:16.326Z,0.4
2017-12-10T09:08:46.846Z,0.4
2017-12-10T09:10:12.575Z,0.4
2017-12-10T09:11:11.296Z,0.4
2017-12-10T09:12:10.112Z,0.4
2017-12-10T09:13:09.418Z,0.4
2017-12-10T09:14:08.240Z,0.4
2017-12-10T09:15:07.447Z,0.4
2017-12-10T09:16:06.269Z,0.4
2017-12-10T09:17:05.083Z,0.4
2017-12-10T09:18:03.948Z,0.4
2017-12-10T09:19:03.362Z,0.4
2017-12-10T09:20:02.079Z,0.4
2017-12-10T09:21:00.907Z,0.5
2017-12-10T09:21:59.497Z,0.5
2017-12-10T09:22:58.923Z,0.5
2017-12-10T09:23:57.618Z,0.5
2017-12-10T09:24:56.923Z,0.5
2017-12-10T09:25:55.627Z,0.5
2017-12-10T09:26:54.841Z,0.5
2017-12-10T09:27:53.436Z,0.5
2017-12-10T09:28:52.647Z,0.6
2017-12-10T09:29:51.364Z,0.6
2017-12-10T09:30:50.577Z,0.5
2017-12-10T09:31:49.384Z,0.6
2017-12-10T09:32:48.478Z,0.6
2017-12-10T09:33:47.737Z,0.6
2017-12-10T09:34:46.604Z,0.6
2017-12-10T09:35:45.415Z,0.6
2017-12-10T09:36:44.124Z,0.6
2017-12-10T09:37:43.427Z,0.6
2017-12-10T09:38:42.130Z,0.6
2017-12-10T09:39:41.337Z,0.6
2017-12-10T09:40:40.138Z,0.6
2017-12-10T09:41:38.928Z,0.6
2017-12-10T09:42:38.157Z,0.6
2017-12-10T09:43:36.864Z,0.6
2017-12-10T09:44:35.973Z,0.6
2017-12-10T09:45:34.888Z,0.7
2017-12-10T09:46:33.588Z,0.7
2017-12-10T09:47:04.116Z,0.7
2017-12-10T09:47:34.743Z,0.7
2017-12-10T09:48:05.265Z,0.7
2017-12-10T09:48:35.895Z,0.7
2017-12-10T09:49:06.017Z,0.7
2017-12-10T09:49:36.537Z,0.7
2017-12-10T09:50:07.052Z,0.7
2017-12-10T09:50:37.467Z,0.7
2017-12-10T09:51:07.986Z,0.7
2017-12-10T09:52:27.825Z,0.7
2017-12-10T09:53:26.426Z,0.7
2017-12-10T09:55:24.575Z,0.7
2017-12-10T09:56:23.177Z,0.7
2017-12-10T09:57:22.173Z,0.7
2017-12-10T09:58:21.382Z,0.7
2017-12-10T09:59:20.607Z,0.7
2017-12-10T09:59:51.351Z,0.7
2017-12-10T10:00:21.584Z,0.7
2017-12-10T10:00:51.610Z,0.7
2017-12-10T10:02:17.615Z,0.7
2017-12-10T10:03:16.322Z,0.7
2017-12-10T10:04:15.240Z,0.7
2017-12-10T10:05:13.831Z,0.7
2017-12-10T10:06:13.041Z,0.7
2017-12-10T10:07:12.150Z,0.7
2017-12-10T10:08:10.861Z,0.7
2017-12-10T10:09:10.180Z,0.7
2017-12-10T10:10:08.786Z,0.7
2017-12-10T10:11:07.777Z,0.7
2017-12-10T10:12:06.984Z,0.8
2017-12-10T10:13:06.196Z,0.8
2017-12-10T10:14:04.684Z,0.8
2017-12-10T10:15:04.115Z,0.8
2017-12-10T10:16:02.708Z,0.8
2017-12-10T10:17:02.137Z,0.8
2017-12-10T10:18:00.950Z,0.8
2017-12-10T10:19:58.424Z,0.8
2017-12-10T10:20:57.735Z,0.8
2017-12-10T10:21:56.557Z,0.8
2017-12-10T10:22:55.263Z,0.8
2017-12-10T10:23:54.582Z,0.8
2017-12-10T10:24:53.749Z,0.8
2017-12-10T10:25:52.454Z,0.8
2017-12-10T10:26:51.370Z,0.9
2017-12-10T10:27:50.470Z,0.9
2017-12-10T10:28:20.989Z,0.9
2017-12-10T10:28:51.725Z,0.9
2017-12-10T10:29:22.254Z,0.9
2017-12-10T10:29:52.778Z,1
2017-12-10T10:30:47.462Z,1
2017-12-10T10:31:17.872Z,1
2017-12-10T10:31:48.386Z,1.1
2017-12-10T10:32:45.301Z,1.1
2017-12-10T10:33:44.121Z,1.1
2017-12-10T10:34:43.445Z,1.1
2017-12-10T10:35:42.261Z,1
2017-12-10T10:36:41.072Z,1
2017-12-10T10:37:40.004Z,1
2017-12-10T10:38:39.423Z,1
2017-12-10T10:39:09.555Z,1
2017-12-10T10:39:40.328Z,1.1
2017-12-10T10:40:10.452Z,1.1
2017-12-10T10:41:35.947Z,1.1
2017-12-10T10:42:34.543Z,1.1
2017-12-10T10:43:33.966Z,1.1
2017-12-10T10:44:32.884Z,1.1
2017-12-10T10:45:31.711Z,1.1
2017-12-10T10:46:31.025Z,1.2
2017-12-10T10:47:29.838Z,1.2
2017-12-10T10:48:28.533Z,1.2
2017-12-10T10:49:27.631Z,1.2
2017-12-10T10:50:26.841Z,1.2
2017-12-10T10:51:25.650Z,1.2
2017-12-10T10:55:21.236Z,1.3
2017-12-10T10:56:20.548Z,1.3
2017-12-10T10:57:19.246Z,1.2
2017-12-10T10:58:18.337Z,1.2
2017-12-10T10:59:16.939Z,1.3
2017-12-10T11:00:16.264Z,1.3
2017-12-10T11:01:15.583Z,1.2
2017-12-10T11:02:14.283Z,1.2
2017-12-10T11:05:11.137Z,1.1
2017-12-10T11:06:09.947Z,1.1
2017-12-10T11:07:09.161Z,1.1
2017-12-10T11:08:08.363Z,1.1
2017-12-10T11:09:07.179Z,1.1
2017-12-10T11:10:05.884Z,1.1
2017-12-10T11:11:05.083Z,1.1
2017-12-10T11:12:03.793Z,1.1
2017-12-10T11:13:02.899Z,1.1
2017-12-10T11:14:02.000Z,1.1
2017-12-10T11:15:59.776Z,1
2017-12-10T11:16:58.910Z,1.1
2017-12-10T11:17:57.615Z,1
2017-12-10T11:18:56.829Z,1
2017-12-10T11:19:55.635Z,1
2017-12-10T11:21:53.867Z,1
2017-12-10T11:22:24.384Z,1
2017-12-10T11:22:55.013Z,1
2017-12-10T11:23:51.496Z,1.1
2017-12-10T11:24:50.723Z,1.1
2017-12-10T11:25:21.359Z,1.1
2017-12-10T12:45:26.069Z,0.7
2017-12-10T13:31:37.375Z,0.6
2017-12-10T13:32:36.471Z,0.6
2017-12-10T13:33:35.783Z,0.6
2017-12-10T13:34:34.589Z,0.6
2017-12-10T13:35:05.216Z,0.6
2017-12-10T13:35:35.735Z,0.6
2017-12-10T13:36:06.327Z,0.6
2017-12-10T13:38:30.189Z,0.6
2017-12-10T13:39:29.390Z,0.6
2017-12-10T13:40:28.105Z,0.6
2017-12-10T13:41:27.314Z,0.6
2017-12-10T13:42:25.913Z,0.6
2017-12-10T13:43:25.027Z,0.6
2017-12-10T13:44:24.260Z,0.6
2017-12-10T13:45:23.088Z,0.6
2017-12-10T13:45:53.112Z,0.6
2017-12-10T13:46:23.636Z,0.6
2017-12-10T16:29:27.600Z,-1.5
2017-12-10T16:30:26.593Z,-1.5
2017-12-10T16:31:25.902Z,-1.5
2017-12-10T16:32:24.603Z,-1.5
2017-12-10T16:34:22.477Z,-1.5
2017-12-10T16:35:21.087Z,-1.5
2017-12-10T16:36:20.306Z,-1.5
2017-12-10T16:37:18.906Z,-1.5
2017-12-10T16:38:17.999Z,-1.5
2017-12-10T16:39:17.320Z,-1.5
2017-12-10T16:41:14.811Z,-1.5
2017-12-10T16:42:13.904Z,-1.5
2017-12-10T16:43:12.604Z,-1.5
2017-12-10T16:44:11.700Z,-1.5
2017-12-10T16:45:10.820Z,-1.5
2017-12-10T16:46:09.313Z,-1.5
2017-12-10T16:47:08.536Z,-1.5
2017-12-10T16:48:07.972Z,-1.5
2017-12-10T16:49:06.783Z,-1.5
2017-12-10T16:51:04.374Z,-1.5
2017-12-10T16:52:03.185Z,-1.5
2017-12-10T16:53:02.397Z,-1.5
2017-12-10T16:54:00.991Z,-1.5
2017-12-10T16:55:00.407Z,-1.5
2017-12-10T16:55:59.322Z,-1.4
2017-12-10T16:56:57.810Z,-1.4
2017-12-10T16:57:57.228Z,-1.4
2017-12-10T16:58:56.211Z,-1.4
2017-12-10T16:59:55.028Z,-1.4
2017-12-10T17:00:53.955Z,-1.4
2017-12-10T17:01:52.766Z,-1.4
2017-12-10T17:02:51.574Z,-1.4
2017-12-10T17:03:50.384Z,-1.4
2017-12-10T17:04:49.689Z,-1.4
2017-12-10T17:05:20.158Z,-1.4
2017-12-10T17:05:50.178Z,-1.4
2017-12-10T17:06:20.708Z,-1.4
2017-12-10T17:07:46.192Z,-1.4
2017-12-10T17:08:45.298Z,-1.4
2017-12-10T17:09:44.002Z,-1.4
2017-12-10T17:10:42.994Z,-1.4
2017-12-10T17:11:42.194Z,-1.4
2017-12-10T17:12:41.006Z,-1.4
2017-12-10T17:13:39.817Z,-1.4
2017-12-10T17:15:38.245Z,-1.4
2017-12-10T17:16:08.367Z,-1.4
2017-12-10T17:16:38.989Z,-1.4
2017-12-10T17:17:09.619Z,-1.4
2017-12-10T17:18:34.699Z,-1.4
2017-12-10T17:19:33.616Z,-1.4
2017-12-10T17:20:32.422Z,-1.3
2017-12-10T17:21:31.745Z,-1.3
2017-12-10T17:22:30.340Z,-1.3
2017-12-10T17:23:29.225Z,-1.3
2017-12-10T17:25:27.206Z,-1.2
2017-12-10T17:26:26.095Z,-1.2
2017-12-10T17:27:24.904Z,-1.2
2017-12-10T17:28:24.324Z,-1.2
2017-12-10T17:29:23.030Z,-1.2
2017-12-10T17:30:21.840Z,-1.2
2017-12-10T17:31:21.039Z,-1.1
2017-12-10T17:32:19.846Z,-1.1
2017-12-10T17:33:18.489Z,-1.1
2017-12-10T17:34:17.694Z,-1.1
2017-12-10T17:35:16.397Z,-1.1
